SWA1HB KSAN-KLAX
Flight info
| Callsign | SWA1HB |
|---|---|
| Flight time | 0h 23m |
| Altitude | 10000 |
| Route | CWARD2 SLI |
| Aircraft | A20N/M-SDE2E3FGHIRWXY/LB1 |
Departure
| Time | 2026-04-21 21:52 |
|---|---|
| Airport | San Diego International Airport (KSAN) |
Arrival
| Time | 2026-04-21 22:16 |
|---|---|
| Airport | Los Angeles International Airport (KLAX) |
| Time | Latitude | Longitude | Altitude | Speed | Heading |
|---|---|---|---|---|---|
| 2026-04-21 21:34 | 32.73225 | -117.20235 | 27 ft | 0 kts | 189° |
| 2026-04-21 21:41 | 32.73241 | -117.20231 | 27 ft | 2 kts | 195° |
| 2026-04-21 21:41 | 32.73258 | -117.20225 | 28 ft | 2 kts | 174° |
| 2026-04-21 21:41 | 32.73272 | -117.20234 | 26 ft | 3 kts | 112° |
| 2026-04-21 21:41 | 32.73280 | -117.20253 | 27 ft | 3 kts | 143° |
| 2026-04-21 21:42 | 32.73297 | -117.20257 | 26 ft | 2 kts | 181° |
| 2026-04-21 21:42 | 32.73307 | -117.20258 | 25 ft | 0 kts | 169° |
| 2026-04-21 21:44 | 32.73330 | -117.20261 | 24 ft | 7 kts | 180° |
| 2026-04-21 21:44 | 32.73378 | -117.20268 | 23 ft | 7 kts | 166° |
| 2026-04-21 21:44 | 32.73426 | -117.20261 | 24 ft | 7 kts | 194° |
| 2026-04-21 21:44 | 32.73474 | -117.20259 | 26 ft | 7 kts | 148° |
| 2026-04-21 21:45 | 32.73507 | -117.20301 | 26 ft | 7 kts | 117° |
| 2026-04-21 21:45 | 32.73517 | -117.20325 | 27 ft | 0 kts | 109° |
| 2026-04-21 21:47 | 32.73514 | -117.20315 | 28 ft | 5 kts | 108° |
| 2026-04-21 21:47 | 32.73522 | -117.20248 | 26 ft | 12 kts | 72° |
| 2026-04-21 21:48 | 32.73532 | -117.20134 | 29 ft | 16 kts | 99° |
| 2026-04-21 21:48 | 32.73497 | -117.19976 | 28 ft | 23 kts | 106° |
| 2026-04-21 21:48 | 32.73448 | -117.19773 | 26 ft | 28 kts | 105° |
| 2026-04-21 21:48 | 32.73392 | -117.19534 | 27 ft | 32 kts | 105° |
| 2026-04-21 21:49 | 32.73331 | -117.19265 | 27 ft | 36 kts | 104° |
| 2026-04-21 21:49 | 32.73254 | -117.18974 | 29 ft | 38 kts | 106° |
| 2026-04-21 21:49 | 32.73178 | -117.18661 | 28 ft | 41 kts | 107° |
| 2026-04-21 21:49 | 32.73100 | -117.18336 | 28 ft | 40 kts | 107° |
| 2026-04-21 21:50 | 32.73021 | -117.18001 | 23 ft | 44 kts | 105° |
| 2026-04-21 21:50 | 32.72960 | -117.17766 | 20 ft | 10 kts | 107° |
| 2026-04-21 21:50 | 32.72955 | -117.17681 | 22 ft | 7 kts | 77° |
| 2026-04-21 21:50 | 32.72956 | -117.17680 | 22 ft | 0 kts | 76° |
| 2026-04-21 21:51 | 32.72971 | -117.17637 | 26 ft | 15 kts | 59° |
| 2026-04-21 21:51 | 32.73034 | -117.17633 | 27 ft | 4 kts | 293° |
| 2026-04-21 21:51 | 32.73048 | -117.17699 | 24 ft | 0 kts | 284° |
| 2026-04-21 21:51 | 32.73050 | -117.17705 | 25 ft | 12 kts | 284° |
| 2026-04-21 21:52 | 32.73196 | -117.18302 | 28 ft | 132 kts | 287° |
| 2026-04-21 21:52 | 32.73507 | -117.19613 | 414 ft | 182 kts | 285° |
| 2026-04-21 21:52 | 32.74024 | -117.20951 | 1711 ft | 177 kts | 301° |
| 2026-04-21 21:52 | 32.74717 | -117.22239 | 2757 ft | 196 kts | 303° |
| 2026-04-21 21:53 | 32.75513 | -117.23681 | 3712 ft | 220 kts | 303° |
| 2026-04-21 21:53 | 32.76394 | -117.25283 | 4787 ft | 243 kts | 303° |
| 2026-04-21 21:53 | 32.77352 | -117.27042 | 5849 ft | 263 kts | 302° |
| 2026-04-21 21:53 | 32.78357 | -117.28900 | 7175 ft | 270 kts | 302° |
| 2026-04-21 21:54 | 32.79380 | -117.30799 | 8494 ft | 280 kts | 302° |
| 2026-04-21 21:54 | 32.80517 | -117.32712 | 8662 ft | 281 kts | 307° |
| 2026-04-21 21:54 | 32.81714 | -117.34555 | 8778 ft | 282 kts | 307° |
| 2026-04-21 21:54 | 32.82913 | -117.36409 | 8891 ft | 283 kts | 307° |
| 2026-04-21 21:55 | 32.84098 | -117.38244 | 9013 ft | 283 kts | 307° |
| 2026-04-21 21:55 | 32.85300 | -117.40109 | 9121 ft | 283 kts | 307° |
| 2026-04-21 21:55 | 32.86500 | -117.41971 | 9236 ft | 284 kts | 307° |
| 2026-04-21 21:55 | 32.87701 | -117.43838 | 9350 ft | 284 kts | 307° |
| 2026-04-21 21:56 | 32.88905 | -117.45708 | 9466 ft | 285 kts | 307° |
| 2026-04-21 21:56 | 32.90113 | -117.47585 | 9576 ft | 285 kts | 307° |
| 2026-04-21 21:56 | 32.91319 | -117.49462 | 9695 ft | 286 kts | 307° |
| 2026-04-21 21:56 | 32.92531 | -117.51349 | 9840 ft | 288 kts | 307° |
| 2026-04-21 21:57 | 32.93765 | -117.53269 | 10307 ft | 300 kts | 307° |
| 2026-04-21 21:57 | 32.95098 | -117.55348 | 10637 ft | 330 kts | 307° |
| 2026-04-21 21:57 | 32.96507 | -117.57543 | 10743 ft | 335 kts | 307° |
| 2026-04-21 21:57 | 32.97926 | -117.59756 | 10857 ft | 337 kts | 307° |
| 2026-04-21 21:58 | 32.99348 | -117.61974 | 10949 ft | 337 kts | 307° |
| 2026-04-21 21:58 | 33.00772 | -117.64197 | 11001 ft | 338 kts | 307° |
| 2026-04-21 21:58 | 33.02194 | -117.66420 | 11000 ft | 337 kts | 307° |
| 2026-04-21 21:58 | 33.03618 | -117.68646 | 11000 ft | 337 kts | 307° |
| 2026-04-21 21:59 | 33.05039 | -117.70868 | 11000 ft | 337 kts | 307° |
| 2026-04-21 21:59 | 33.06540 | -117.73023 | 11000 ft | 338 kts | 314° |
| 2026-04-21 21:59 | 33.08279 | -117.74897 | 11000 ft | 338 kts | 320° |
| 2026-04-21 21:59 | 33.10050 | -117.76680 | 11000 ft | 338 kts | 319° |
| 2026-04-21 22:00 | 33.11840 | -117.78496 | 11000 ft | 338 kts | 319° |
| 2026-04-21 22:00 | 33.13630 | -117.80317 | 11000 ft | 338 kts | 319° |
| 2026-04-21 22:00 | 33.15417 | -117.82138 | 11000 ft | 338 kts | 319° |
| 2026-04-21 22:00 | 33.17202 | -117.83957 | 11000 ft | 338 kts | 319° |
| 2026-04-21 22:01 | 33.19124 | -117.85570 | 11000 ft | 338 kts | 331° |
| 2026-04-21 22:01 | 33.21289 | -117.86647 | 10931 ft | 336 kts | 343° |
| 2026-04-21 22:01 | 33.23567 | -117.87257 | 10566 ft | 334 kts | 348° |
| 2026-04-21 22:01 | 33.25837 | -117.87808 | 10311 ft | 332 kts | 348° |
| 2026-04-21 22:02 | 33.28116 | -117.88365 | 10207 ft | 336 kts | 348° |
| 2026-04-21 22:02 | 33.30395 | -117.88927 | 10108 ft | 334 kts | 348° |
| 2026-04-21 22:02 | 33.32674 | -117.89493 | 10013 ft | 334 kts | 348° |
| 2026-04-21 22:02 | 33.34940 | -117.90057 | 9998 ft | 329 kts | 348° |
| 2026-04-21 22:03 | 33.37110 | -117.90598 | 9998 ft | 308 kts | 348° |
| 2026-04-21 22:03 | 33.39125 | -117.91172 | 9999 ft | 288 kts | 342° |
| 2026-04-21 22:03 | 33.41039 | -117.91880 | 9998 ft | 291 kts | 342° |
| 2026-04-21 22:03 | 33.42970 | -117.92584 | 9998 ft | 286 kts | 342° |
| 2026-04-21 22:04 | 33.44818 | -117.93254 | 9998 ft | 268 kts | 342° |
| 2026-04-21 22:04 | 33.46552 | -117.93882 | 9998 ft | 251 kts | 342° |
| 2026-04-21 22:04 | 33.48172 | -117.94470 | 9998 ft | 236 kts | 342° |
| 2026-04-21 22:04 | 33.49692 | -117.95021 | 9997 ft | 221 kts | 342° |
| 2026-04-21 22:05 | 33.51124 | -117.95542 | 9996 ft | 207 kts | 342° |
| 2026-04-21 22:05 | 33.52486 | -117.96038 | 10010 ft | 220 kts | 342° |
| 2026-04-21 22:05 | 33.54058 | -117.96612 | 9998 ft | 242 kts | 342° |
| 2026-04-21 22:05 | 33.55669 | -117.97199 | 10000 ft | 242 kts | 342° |
| 2026-04-21 22:06 | 33.57284 | -117.97787 | 10000 ft | 243 kts | 342° |
| 2026-04-21 22:06 | 33.58901 | -117.98375 | 10000 ft | 243 kts | 342° |
| 2026-04-21 22:06 | 33.60518 | -117.98965 | 10000 ft | 243 kts | 342° |
| 2026-04-21 22:06 | 33.62134 | -117.99554 | 9983 ft | 242 kts | 342° |
| 2026-04-21 22:07 | 33.63739 | -118.00139 | 9803 ft | 240 kts | 342° |
| 2026-04-21 22:07 | 33.65340 | -118.00724 | 9493 ft | 240 kts | 342° |
| 2026-04-21 22:07 | 33.66937 | -118.01307 | 9189 ft | 240 kts | 342° |
| 2026-04-21 22:07 | 33.68531 | -118.01889 | 8885 ft | 239 kts | 342° |
| 2026-04-21 22:08 | 33.70109 | -118.02466 | 8693 ft | 233 kts | 342° |
| 2026-04-21 22:08 | 33.71637 | -118.03024 | 8511 ft | 228 kts | 342° |
| 2026-04-21 22:08 | 33.73168 | -118.03584 | 8079 ft | 234 kts | 342° |
| 2026-04-21 22:08 | 33.74751 | -118.04164 | 7583 ft | 242 kts | 342° |
| 2026-04-21 22:09 | 33.76370 | -118.04756 | 7289 ft | 240 kts | 342° |
| 2026-04-21 22:09 | 33.77934 | -118.05329 | 7180 ft | 230 kts | 342° |
| 2026-04-21 22:09 | 33.79382 | -118.06044 | 7074 ft | 221 kts | 334° |
| 2026-04-21 22:09 | 33.80772 | -118.06828 | 6997 ft | 222 kts | 334° |
| 2026-04-21 22:10 | 33.82172 | -118.07609 | 7002 ft | 221 kts | 334° |
| 2026-04-21 22:10 | 33.83567 | -118.08384 | 6997 ft | 221 kts | 335° |
| 2026-04-21 22:10 | 33.84961 | -118.09156 | 6995 ft | 217 kts | 335° |
| 2026-04-21 22:10 | 33.86362 | -118.09933 | 7000 ft | 232 kts | 335° |
| 2026-04-21 22:11 | 33.87832 | -118.10749 | 6999 ft | 232 kts | 335° |
| 2026-04-21 22:11 | 33.89276 | -118.11550 | 7000 ft | 234 kts | 335° |
| 2026-04-21 22:11 | 33.90841 | -118.12421 | 6997 ft | 254 kts | 335° |
| 2026-04-21 22:11 | 33.92440 | -118.13310 | 6914 ft | 252 kts | 335° |
| 2026-04-21 22:12 | 33.94028 | -118.14193 | 6615 ft | 251 kts | 334° |
| 2026-04-21 22:12 | 33.95431 | -118.15406 | 6242 ft | 250 kts | 309° |
| 2026-04-21 22:12 | 33.96159 | -118.17269 | 5877 ft | 248 kts | 279° |
| 2026-04-21 22:12 | 33.96129 | -118.19340 | 5511 ft | 246 kts | 263° |
| 2026-04-21 22:13 | 33.95842 | -118.21272 | 5307 ft | 222 kts | 257° |
| 2026-04-21 22:13 | 33.95551 | -118.22994 | 5129 ft | 198 kts | 260° |
| 2026-04-21 22:13 | 33.95355 | -118.24553 | 4968 ft | 179 kts | 263° |
| 2026-04-21 22:13 | 33.95214 | -118.25966 | 4835 ft | 162 kts | 263° |
| 2026-04-21 22:14 | 33.95092 | -118.27435 | 3612 ft | 201 kts | 266° |
| 2026-04-21 22:14 | 33.94944 | -118.29244 | 2459 ft | 224 kts | 257° |
| 2026-04-21 22:14 | 33.94709 | -118.31028 | 2121 ft | 202 kts | 265° |
| 2026-04-21 22:14 | 33.94532 | -118.32527 | 2326 ft | 160 kts | 264° |
| 2026-04-21 22:15 | 33.94414 | -118.33790 | 2193 ft | 147 kts | 261° |
| 2026-04-21 22:15 | 33.94244 | -118.35138 | 1228 ft | 184 kts | 264° |
| 2026-04-21 22:15 | 33.94124 | -118.36736 | 565 ft | 193 kts | 264° |
| 2026-04-21 22:15 | 33.93956 | -118.38285 | 281 ft | 180 kts | 262° |
| 2026-04-21 22:16 | 33.93799 | -118.39705 | 146 ft | 162 kts | 263° |
| 2026-04-21 22:16 | 33.93702 | -118.40708 | 125 ft | 48 kts | 263° |
| 2026-04-21 22:16 | 33.93733 | -118.40890 | 125 ft | 12 kts | 324° |
| 2026-04-21 22:16 | 33.93798 | -118.40915 | 124 ft | 13 kts | 347° |